Arnold, Pennsylvania
Current Conditions -  °F | °C
As of 1:53 PM on Monday 20 Oct 2014 (Local Time) from KAGC Reporting Station
Few Clouds Few Clouds  
Wind Chill: 55°   Ceiling: Unl
Heat Index: 55°   Visibility: 10mi
Dew Point: 38°   Wind: 10mph
Humidity: 53%   Direction: 190°S
Pressure: 29.91"   Gusts: 21mph
Location:  40.5657°N, 79.707°W
Report Text: KAGC 201753Z 19009G18KT 10SM FEW100 13/03 A2991 RMK AO2 SLP137 T01280033 10128 20056 58027
Loading
Personal Weather Stations






























Interactive Weather Map
Tropical Storm Tracking
New forecast layout! Learn more

10-Day Weather Forecast

Advertisements
Track Severe Weather on mobile